Skip Navigation Links
NOAA logo - Click to go to the NOAA homepage
NOAA's National Weather Service
Alaska Aviation Weather Unit
  NWS logo - Click to go to the NWS homepage
Left Navbar Graphic     15 AKDT = 23 GMT

   
NOAA is celebrating 200 years of science, service, and stewardship. Visit the NOAA 200th celebration Web site to learn more.
USA.gov is the U.S. Government's official Web portal to all Federal, state and local government Web resources and services.
Facebook
NWS on Facebook

Important Change Regarding the AAWU Web Presence

 

Over the last several months, the AAWU has been working to navigate its webpages to a nationally supported server. Security, as well as other needs, have necessitated the change.  We have been given an extension for the site changeover while we diligently work at addressing feedback received. As of July 14, 2017, aawu.arh.noaa.gov will be discontinued. The new AAWU web address is weather.gov/aawu. It is now live and will run in-parallel with the old site until it is discontinued on July 14, 2017. Please continue to send any feedback or questions regarding the new webpages to nws.ar.aawu.webauthors@noaa.gov.  Thank you for your patience during this time of transition.
AAWU Home :: Display TAF Add Bookmark
SPECI PAHY 191719Z AUTO 00000KT 10SM FEW020 BKN028 OVC034 07/04 A2892
     RMK AO2 PNO $=

SPECI PAHY 191731Z AUTO 00000KT 10SM SCT028 BKN036 OVC045 07/04 A2892
     RMK AO2 PNO $=

PAHY 191753Z AUTO 10003KT 10SM BKN026 OVC047 07/05 A2893 RMK AO2
     PNO $=

METAR PAHY 191756Z AUTO 11003KT 10SM SCT026 BKN031 OVC047 07/05
 A2893 RMK AO2 SLP794 6//// T00720050 10078 20061 51016 PNO $=

SPECI PAHY 191848Z AUTO 12004KT 10SM BKN020 BKN029 OVC046 08/05 A2894
     RMK AO2 PNO $=

METAR PAHY 191856Z AUTO 13005KT 10SM SCT020 SCT027 OVC036 08/05 A2895
     RMK AO2 SLP799 T00830050 PNO $=

SPECI PAHY 191903Z AUTO 14005KT 10SM SCT020 BKN027 OVC034 08/05 A2895
     RMK AO2 PNO $=

SPECI PAHY 191915Z AUTO 11003KT 10SM FEW022 SCT029 BKN034 08/05 A2895
     RMK AO2 PNO $=

PAHY 191923Z AUTO 12003KT 10SM BKN029 BKN036 BKN046 08/05 A2896
     RMK AO2 PNO $=

METAR PAHY 191956Z AUTO 14007KT 10SM -RA OVC032 08/06 A2897 RMK AO2
     RAB27 SLP806 T00830056 PNO $=

SPECI PAHY 192044Z AUTO 15004KT 10SM -RA BKN021 BKN027 OVC035 08/06
 A2899 RMK AO2 PNO $=

METAR PAHY 192056Z AUTO 00000KT 10SM BKN019 OVC025 08/06 A2899 RMK AO2
     RAE48 SLP813 6//// T00830056 53019 PNO $=

METAR PAHY 192156Z AUTO 01004KT 10SM FEW017 OVC027 08/06 A2901 RMK
 AO2 SLP820 T00830061 PNO $=

PAHY 192219Z AUTO 32005KT 10SM SCT025 BKN035 OVC043 08/06 A2902
     RMK AO2 PNO $=

PAHY 192253Z AUTO 32005KT 10SM -RA FEW012 BKN028 OVC036 08/06
     A2903 RMK AO2 RAB38 PNO $=

METAR PAHY 192256Z AUTO 32005KT 10SM -RA BKN028 BKN036 OVC050 08/06
 A2903 RMK AO2 RAB38 SLP828 T00780061 PNO $=


NOAA's National Weather Service
Alaska Aviation Weather Unit
6930 Sand Lake Road
Anchorage, AK 99502-1845
Disclaimer
Credits
Glossary
Privacy Policy
About Us
Career Opportunities
Contact AAWU Internet Services Site last modified: April, 17th 2012